Time;durP1;ratioP1;P1;durP2;ratioP2;P2;SDS_P1;SDS_P2;PMS_P1;PMS_P2;Temp;Humidity;BMP_temperature;BMP_pressure;BME280_temperature;BME280_humidity;BME280_pressure;Samples;Min_cycle;Max_cycle;Signal;HPM_P1;HPM_P2
2021/12/24 00:00:54;;;;;;;12.45;5.57;;;;;;;;;;5059576;28;20068;-73
2021/12/24 00:03:19;;;;;;;13.52;5.93;;;;;;;;;;5059452;28;20005;-73
2021/12/24 00:05:45;;;;;;;15.88;6.15;;;;;;;;;;5059835;28;20028;-74
2021/12/24 00:08:11;;;;;;;13.55;6.28;;;;;;;;;;5059734;28;20021;-73
2021/12/24 00:10:38;;;;;;;12.15;5.70;;;;;;;;;;5059680;28;20024;-73
2021/12/24 00:13:09;;;;;;;12.38;5.60;;;;;;;;;;5059562;28;20108;-73
2021/12/24 00:18:11;;;;;;;14.30;6.57;;;;;;;;;;5059714;28;20028;-73
2021/12/24 00:37:01;;;;;;;8.50;3.72;;;;;;;;;;5059156;28;20024;-72
2021/12/24 00:39:27;;;;;;;14.65;5.15;;;;;;;;;;5059033;28;20037;-72
2021/12/24 00:41:52;;;;;;;9.40;4.82;;;;;;;;;;5057833;28;20024;-73
2021/12/24 00:44:18;;;;;;;11.40;4.72;;;;;;;;;;5059080;28;20029;-73
2021/12/24 00:46:43;;;;;;;13.85;5.95;;;;;;;;;;5058951;28;20024;-73
2021/12/24 00:49:09;;;;;;;12.73;5.05;;;;;;;;;;5041780;28;20044;-72
2021/12/24 00:57:02;;;;;;;8.07;4.13;;;;;;;;;;5058774;28;20040;-73
2021/12/24 00:59:28;;;;;;;10.40;4.45;;;;;;;;;;5058866;28;20072;-73
2021/12/24 01:01:53;;;;;;;8.88;4.68;;;;;;;;;;5057974;28;20017;-73
2021/12/24 01:04:19;;;;;;;12.02;4.72;;;;;;;;;;5058483;28;20009;-73
2021/12/24 01:06:45;;;;;;;11.25;5.07;;;;;;;;;;5058568;28;20029;-72
2021/12/24 01:09:10;;;;;;;10.70;4.47;;;;;;;;;;5058459;28;20013;-73
2021/12/24 01:11:36;;;;;;;11.95;5.40;;;;;;;;;;5058609;28;20060;-73
2021/12/24 01:14:01;;;;;;;11.27;4.60;;;;;;;;;;5058655;28;20108;-73
2021/12/24 01:16:51;;;;;;;10.60;5.68;;;;;;;;;;5058476;28;20017;-72
2021/12/24 01:19:21;;;;;;;11.57;4.68;;;;;;;;;;5041239;28;20013;-73
2021/12/24 01:24:21;;;;;;;12.60;5.85;;;;;;;;;;5058443;28;20029;-73
2021/12/24 01:40:18;;;;;;;12.38;4.68;;;;;;;;;;5058129;28;19919;-73
2021/12/24 01:42:50;;;;;;;11.27;5.07;;;;;;;;;;5057636;28;20084;-73
2021/12/24 01:45:23;;;;;;;11.00;4.28;;;;;;;;;;5057679;28;20040;-73
2021/12/24 01:47:50;;;;;;;10.45;4.80;;;;;;;;;;5040682;28;20013;-73
2021/12/24 01:50:17;;;;;;;11.40;5.45;;;;;;;;;;5040735;28;20026;-73
2021/12/24 01:52:43;;;;;;;14.30;5.78;;;;;;;;;;5040295;28;20084;-73
2021/12/24 01:55:09;;;;;;;11.27;5.38;;;;;;;;;;5040410;28;20006;-73
2021/12/24 01:57:36;;;;;;;10.38;4.93;;;;;;;;;;5057644;28;20021;-72
2021/12/24 02:00:05;;;;;;;10.85;4.00;;;;;;;;;;5057605;28;20043;-73
2021/12/24 02:02:31;;;;;;;11.57;4.78;;;;;;;;;;5057675;28;20017;-73
2021/12/24 02:04:56;;;;;;;9.07;3.92;;;;;;;;;;5057603;28;20013;-73
2021/12/24 02:07:21;;;;;;;8.18;3.03;;;;;;;;;;5057593;28;20033;-73
2021/12/24 02:09:48;;;;;;;5.30;2.83;;;;;;;;;;5057400;28;20009;-72
2021/12/24 02:12:17;;;;;;;6.28;2.85;;;;;;;;;;5057486;28;20009;-71
2021/12/24 02:14:47;;;;;;;5.53;3.05;;;;;;;;;;5040419;28;20028;-72
2021/12/24 02:28:28;;;;;;;;;;;;;;;;;;5057759;28;20021;-73
2021/12/24 02:30:54;;;;;;;2.35;1.13;;;;;;;;;;5056555;28;19921;-72
2021/12/24 02:33:20;;;;;;;3.20;1.17;;;;;;;;;;5057141;28;20009;-73
2021/12/24 02:35:46;;;;;;;1.98;1.00;;;;;;;;;;5057338;28;20022;-73
2021/12/24 02:38:11;;;;;;;2.88;1.13;;;;;;;;;;5057187;28;20035;-73
2021/12/24 02:40:37;;;;;;;1.15;1.00;;;;;;;;;;5057184;28;20020;-72
2021/12/24 02:43:04;;;;;;;2.90;1.10;;;;;;;;;;5057119;28;20278;-73
2021/12/24 02:45:33;;;;;;;1.25;0.68;;;;;;;;;;5057152;28;20014;-72
2021/12/24 02:55:56;;;;;;;2.88;1.25;;;;;;;;;;5057091;28;20013;-73
2021/12/24 02:58:22;;;;;;;2.33;1.00;;;;;;;;;;5056898;28;20014;-72
2021/12/24 03:00:47;;;;;;;1.63;0.90;;;;;;;;;;5056563;28;20009;-72
2021/12/24 03:03:14;;;;;;;2.05;0.90;;;;;;;;;;5039921;28;20036;-72
2021/12/24 03:05:40;;;;;;;0.80;0.80;;;;;;;;;;5058375;28;20013;-72
2021/12/24 03:08:05;;;;;;;1.48;0.80;;;;;;;;;;5061027;28;20019;-71
2021/12/24 03:10:31;;;;;;;1.55;0.70;;;;;;;;;;5043747;28;20044;-72
2021/12/24 03:12:57;;;;;;;0.95;0.73;;;;;;;;;;5060763;28;20025;-71
2021/12/24 03:15:24;;;;;;;1.02;0.60;;;;;;;;;;5043474;28;20005;-72
2021/12/24 03:17:54;;;;;;;1.30;0.60;;;;;;;;;;5043593;28;20009;-72
2021/12/24 03:20:21;;;;;;;0.50;0.50;;;;;;;;;;5060784;28;20005;-72
2021/12/24 03:25:31;;;;;;;2.80;0.80;;;;;;;;;;5060750;28;20040;-72
2021/12/24 03:27:57;;;;;;;1.08;0.60;;;;;;;;;;5060411;28;20017;-72
2021/12/24 03:30:23;;;;;;;1.08;0.60;;;;;;;;;;5060178;28;20030;-72
2021/12/24 03:32:49;;;;;;;1.85;0.68;;;;;;;;;;5060412;28;20034;-72
2021/12/24 03:35:14;;;;;;;1.00;0.60;;;;;;;;;;5060391;28;20045;-72
2021/12/24 03:37:39;;;;;;;1.10;0.80;;;;;;;;;;5060390;28;20025;-72
2021/12/24 03:40:05;;;;;;;1.05;0.80;;;;;;;;;;5043032;28;20013;-72
2021/12/24 03:42:36;;;;;;;1.10;0.70;;;;;;;;;;5060137;28;20017;-72
2021/12/24 03:45:18;;;;;;;0.95;0.63;;;;;;;;;;5060269;28;20032;-72
2021/12/24 03:47:47;;;;;;;1.23;0.70;;;;;;;;;;5042959;28;20089;-72
2021/12/24 03:50:13;;;;;;;0.85;0.82;;;;;;;;;;5042845;28;20013;-72
2021/12/24 03:53:02;;;;;;;0.85;0.63;;;;;;;;;;5060162;28;20040;-71
2021/12/24 03:55:23;;;;;;;1.15;0.80;;;;;;;;;;5060020;28;20029;-71
2021/12/24 03:57:49;;;;;;;2.30;0.70;;;;;;;;;;5059937;28;20073;-71
2021/12/24 04:00:18;;;;;;;0.65;0.65;;;;;;;;;;5059860;28;20032;-71
2021/12/24 04:02:45;;;;;;;2.13;0.80;;;;;;;;;;5059727;28;20047;-71
2021/12/24 04:05:11;;;;;;;1.67;1.23;;;;;;;;;;5059801;28;20013;-71
2021/12/24 04:07:36;;;;;;;1.20;0.80;;;;;;;;;;5059600;28;20032;-71
2021/12/24 04:12:42;;;;;;;2.25;0.90;;;;;;;;;;5059716;28;20017;-71
2021/12/24 04:15:08;;;;;;;0.75;0.70;;;;;;;;;;5042750;28;20024;-71
2021/12/24 04:17:37;;;;;;;1.17;0.70;;;;;;;;;;5059312;28;20017;-71
2021/12/24 04:25:39;;;;;;;1.63;0.90;;;;;;;;;;5037254;28;20038;-71
2021/12/24 04:28:05;;;;;;;1.58;1.02;;;;;;;;;;5059519;28;20064;-71
2021/12/24 04:30:39;;;;;;;2.72;1.08;;;;;;;;;;5059078;28;20029;-71
2021/12/24 04:33:19;;;;;;;2.15;1.10;;;;;;;;;;5059481;28;20017;-71
2021/12/24 04:35:56;;;;;;;4.22;1.50;;;;;;;;;;5059340;28;20009;-71
2021/12/24 04:51:51;;;;;;;1.92;1.20;;;;;;;;;;5059091;28;20021;-72
2021/12/24 05:02:50;;;;;;;3.00;1.73;;;;;;;;;;5058610;28;20040;-72
2021/12/24 05:10:09;;;;;;;2.22;1.33;;;;;;;;;;5058558;28;20017;-72
2021/12/24 05:12:34;;;;;;;2.15;1.20;;;;;;;;;;5058475;28;20085;-71
2021/12/24 05:15:03;;;;;;;2.80;1.60;;;;;;;;;;5058629;28;20010;-72
2021/12/24 05:17:47;;;;;;;2.40;1.60;;;;;;;;;;5058207;28;20013;-71
2021/12/24 05:22:57;;;;;;;3.78;1.20;;;;;;;;;;5058498;28;20037;-72
2021/12/24 05:25:22;;;;;;;2.40;1.30;;;;;;;;;;5058428;28;20017;-72
2021/12/24 05:27:51;;;;;;;3.22;1.35;;;;;;;;;;5057834;28;20024;-71
2021/12/24 05:30:17;;;;;;;3.15;1.40;;;;;;;;;;5040791;28;20033;-72
2021/12/24 05:32:42;;;;;;;1.95;1.33;;;;;;;;;;5058273;28;20018;-72
2021/12/24 05:35:08;;;;;;;3.45;1.95;;;;;;;;;;5058223;28;20033;-72
2021/12/24 05:37:33;;;;;;;2.22;1.33;;;;;;;;;;5058056;28;20028;-72
2021/12/24 05:39:58;;;;;;;2.38;1.25;;;;;;;;;;5058151;28;20009;-72
2021/12/24 05:42:26;;;;;;;5.40;1.80;;;;;;;;;;5057946;28;20021;-72
2021/12/24 05:44:52;;;;;;;1.90;1.15;;;;;;;;;;5057884;28;20014;-71
2021/12/24 05:47:17;;;;;;;2.20;1.17;;;;;;;;;;5057905;28;20039;-72
2021/12/24 05:49:43;;;;;;;2.08;1.40;;;;;;;;;;5057894;28;20017;-72
2021/12/24 05:52:08;;;;;;;2.38;1.50;;;;;;;;;;5040670;28;20014;-72
2021/12/24 05:54:34;;;;;;;2.58;1.48;;;;;;;;;;5057756;28;20044;-72
2021/12/24 05:56:59;;;;;;;1.90;1.20;;;;;;;;;;5040391;28;20014;-72
2021/12/24 05:59:25;;;;;;;1.58;1.13;;;;;;;;;;5057861;28;20013;-71
2021/12/24 06:01:51;;;;;;;2.28;1.27;;;;;;;;;;5057537;28;20033;-72
2021/12/24 06:04:16;;;;;;;3.05;1.50;;;;;;;;;;5057576;28;20010;-72
2021/12/24 06:06:41;;;;;;;1.80;1.17;;;;;;;;;;5057635;28;20263;-71
2021/12/24 06:09:07;;;;;;;1.83;0.40;;;;;;;;;;5040354;28;20028;-72
2021/12/24 06:11:32;;;;;;;0.30;0.20;;;;;;;;;;5057579;28;20017;-71
2021/12/24 06:14:06;;;;;;;0.55;0.52;;;;;;;;;;5057529;28;20012;-71
2021/12/24 06:16:31;;;;;;;0.35;0.30;;;;;;;;;;5057758;28;20073;-72
2021/12/24 06:19:01;;;;;;;0.70;0.30;;;;;;;;;;5057657;28;20018;-72
2021/12/24 06:21:26;;;;;;;0.20;0.20;;;;;;;;;;5057417;28;20021;-72
2021/12/24 06:23:51;;;;;;;0.82;0.20;;;;;;;;;;5057201;28;20028;-70
2021/12/24 06:26:17;;;;;;;0.15;0.15;;;;;;;;;;5040421;28;20012;-72
2021/12/24 06:28:43;;;;;;;1.05;0.30;;;;;;;;;;5057547;28;20014;-72
2021/12/24 06:31:08;;;;;;;0.40;0.30;;;;;;;;;;5057249;28;20025;-72
2021/12/24 06:33:34;;;;;;;1.48;0.20;;;;;;;;;;5057523;28;20063;-72
2021/12/24 06:36:00;;;;;;;0.32;0.20;;;;;;;;;;5040170;28;20013;-72
2021/12/24 06:38:26;;;;;;;0.10;0.10;;;;;;;;;;5057202;28;20021;-71
2021/12/24 06:40:53;;;;;;;0.20;0.20;;;;;;;;;;5043584;28;20031;-71
2021/12/24 06:43:19;;;;;;;0.20;0.20;;;;;;;;;;5061337;28;20018;-71
2021/12/24 06:45:47;;;;;;;0.20;0.20;;;;;;;;;;5044143;28;20014;-72
2021/12/24 06:48:13;;;;;;;0.68;0.30;;;;;;;;;;5044216;28;20033;-72
2021/12/24 06:50:38;;;;;;;0.20;0.20;;;;;;;;;;5060781;28;20010;-72
2021/12/24 06:53:03;;;;;;;0.30;0.25;;;;;;;;;;5060387;28;20017;-72
2021/12/24 06:55:29;;;;;;;0.25;0.22;;;;;;;;;;5060701;28;20012;-72
2021/12/24 06:57:55;;;;;;;0.55;0.47;;;;;;;;;;5061186;28;20098;-72
2021/12/24 07:00:22;;;;;;;0.22;0.22;;;;;;;;;;5061165;28;20100;-72
2021/12/24 07:02:49;;;;;;;0.60;0.30;;;;;;;;;;5061060;28;20028;-72
2021/12/24 07:05:15;;;;;;;0.65;0.20;;;;;;;;;;5061078;28;20020;-72
2021/12/24 07:07:40;;;;;;;0.22;0.22;;;;;;;;;;5060955;28;20029;-71
2021/12/24 07:10:06;;;;;;;0.45;0.25;;;;;;;;;;5044126;28;20005;-72
2021/12/24 07:12:32;;;;;;;0.30;0.30;;;;;;;;;;5060780;28;20001;-72
2021/12/24 07:14:57;;;;;;;0.43;0.20;;;;;;;;;;5060541;28;20077;-72
2021/12/24 07:17:24;;;;;;;0.22;0.13;;;;;;;;;;5060812;28;20016;-71
2021/12/24 07:19:50;;;;;;;0.57;0.30;;;;;;;;;;5060794;28;20081;-72
2021/12/24 07:22:17;;;;;;;0.22;0.22;;;;;;;;;;5060530;28;20026;-72
2021/12/24 07:24:43;;;;;;;1.00;0.30;;;;;;;;;;5060618;28;20013;-72
2021/12/24 07:27:08;;;;;;;1.10;0.30;;;;;;;;;;5060628;28;20032;-72
2021/12/24 07:29:33;;;;;;;0.70;0.20;;;;;;;;;;5060455;28;20021;-72
2021/12/24 07:31:59;;;;;;;0.90;0.30;;;;;;;;;;5060115;28;20017;-73
2021/12/24 07:34:24;;;;;;;0.55;0.30;;;;;;;;;;5060571;28;20053;-72
2021/12/24 07:36:50;;;;;;;0.22;0.22;;;;;;;;;;5060345;28;20040;-73
2021/12/24 07:39:15;;;;;;;0.77;0.22;;;;;;;;;;5060455;28;20014;-72
2021/12/24 07:41:41;;;;;;;1.63;0.30;;;;;;;;;;5060262;28;20024;-72
2021/12/24 07:44:08;;;;;;;0.30;0.30;;;;;;;;;;5059924;28;20013;-72
2021/12/24 07:46:41;;;;;;;1.15;0.60;;;;;;;;;;5060126;28;20101;-72
2021/12/24 07:49:29;;;;;;;0.87;0.50;;;;;;;;;;5042745;28;20040;-72
2021/12/24 07:52:01;;;;;;;0.57;0.38;;;;;;;;;;5058700;28;20061;-71
2021/12/24 07:54:28;;;;;;;0.55;0.35;;;;;;;;;;5059696;28;20017;-72
2021/12/24 07:56:54;;;;;;;0.63;0.35;;;;;;;;;;5059525;28;20052;-72
2021/12/24 07:59:19;;;;;;;2.42;0.50;;;;;;;;;;5059891;28;20018;-71
2021/12/24 08:01:45;;;;;;;1.10;0.60;;;;;;;;;;5042661;28;20049;-71
2021/12/24 08:04:13;;;;;;;3.97;0.80;;;;;;;;;;5059879;28;20043;-72
2021/12/24 08:06:39;;;;;;;1.40;0.40;;;;;;;;;;5059768;28;20013;-71
2021/12/24 08:09:08;;;;;;;3.30;0.38;;;;;;;;;;5059800;28;20044;-71
2021/12/24 08:11:36;;;;;;;5.50;0.73;;;;;;;;;;5059660;28;20009;-72
2021/12/24 08:14:04;;;;;;;0.40;0.30;;;;;;;;;;5059879;28;20017;-72
2021/12/24 08:16:30;;;;;;;1.20;0.30;;;;;;;;;;5042560;28;20056;-71
2021/12/24 08:18:56;;;;;;;1.55;0.50;;;;;;;;;;5059710;28;20017;-73
2021/12/24 08:21:22;;;;;;;1.77;0.50;;;;;;;;;;5059544;28;20036;-71
2021/12/24 08:23:48;;;;;;;0.47;0.30;;;;;;;;;;5059684;28;20025;-71
2021/12/24 08:26:14;;;;;;;1.13;0.30;;;;;;;;;;5059576;28;20028;-71
2021/12/24 08:28:40;;;;;;;0.90;0.30;;;;;;;;;;5059562;28;20029;-71
2021/12/24 08:31:06;;;;;;;1.55;0.40;;;;;;;;;;5059039;28;20101;-71
2021/12/24 08:33:34;;;;;;;0.50;0.22;;;;;;;;;;5059596;28;20021;-71
2021/12/24 08:35:59;;;;;;;3.85;0.77;;;;;;;;;;5042219;28;20010;-71
2021/12/24 08:38:25;;;;;;;2.38;0.38;;;;;;;;;;5059602;28;20025;-71
2021/12/24 08:40:50;;;;;;;4.28;0.73;;;;;;;;;;5059231;28;20017;-71
2021/12/24 08:43:15;;;;;;;2.92;0.40;;;;;;;;;;5059272;28;20206;-71
2021/12/24 08:45:41;;;;;;;1.65;0.38;;;;;;;;;;5059261;28;20018;-71
2021/12/24 08:48:06;;;;;;;0.77;0.40;;;;;;;;;;5059278;28;20013;-71
2021/12/24 08:50:32;;;;;;;0.57;0.32;;;;;;;;;;5059054;28;20048;-71
2021/12/24 08:52:57;;;;;;;2.25;0.57;;;;;;;;;;5059100;28;20037;-71
2021/12/24 08:55:22;;;;;;;1.48;0.55;;;;;;;;;;5041749;28;20052;-71
2021/12/24 08:57:48;;;;;;;0.57;0.30;;;;;;;;;;5059005;28;20017;-72
2021/12/24 09:00:14;;;;;;;1.13;0.40;;;;;;;;;;5058969;28;20009;-71
2021/12/24 09:02:40;;;;;;;0.77;0.30;;;;;;;;;;5058149;28;20017;-71
2021/12/24 09:05:07;;;;;;;1.02;0.30;;;;;;;;;;5058639;28;20032;-72
2021/12/24 09:07:33;;;;;;;2.03;0.57;;;;;;;;;;5058919;28;20029;-71
2021/12/24 09:09:58;;;;;;;1.45;0.40;;;;;;;;;;5041518;28;20021;-71
2021/12/24 09:12:23;;;;;;;0.70;0.50;;;;;;;;;;5058777;28;20032;-70
2021/12/24 09:14:49;;;;;;;2.53;0.45;;;;;;;;;;5058694;28;20340;-71
2021/12/24 09:17:15;;;;;;;1.42;1.13;;;;;;;;;;5058640;28;20055;-70
2021/12/24 09:19:46;;;;;;;2.70;0.40;;;;;;;;;;5041392;28;20036;-71
2021/12/24 09:22:21;;;;;;;3.47;1.02;;;;;;;;;;5058396;28;20018;-71
2021/12/24 09:24:49;;;;;;;2.83;0.50;;;;;;;;;;5058457;28;20025;-71
2021/12/24 09:27:16;;;;;;;1.40;0.40;;;;;;;;;;5058417;28;20006;-71
2021/12/24 09:29:42;;;;;;;2.20;0.40;;;;;;;;;;5058336;28;20009;-71
2021/12/24 09:32:08;;;;;;;2.97;0.50;;;;;;;;;;5040979;28;20039;-71
2021/12/24 09:34:34;;;;;;;1.27;0.50;;;;;;;;;;5041158;28;20060;-71
2021/12/24 09:36:59;;;;;;;3.20;0.70;;;;;;;;;;5040654;28;20014;-71
2021/12/24 09:39:25;;;;;;;2.33;0.60;;;;;;;;;;5058096;28;20029;-71
2021/12/24 09:41:50;;;;;;;2.38;0.38;;;;;;;;;;5057998;28;20082;-71
2021/12/24 09:44:16;;;;;;;0.60;0.50;;;;;;;;;;5058053;28;20017;-71
2021/12/24 09:46:43;;;;;;;1.65;0.60;;;;;;;;;;5040807;28;20016;-71
2021/12/24 09:49:13;;;;;;;3.38;0.70;;;;;;;;;;5040608;28;20081;-71
2021/12/24 09:51:41;;;;;;;1.77;0.50;;;;;;;;;;5057814;28;20037;-71
2021/12/24 09:54:13;;;;;;;1.23;0.57;;;;;;;;;;5057966;28;20021;-71
2021/12/24 09:56:39;;;;;;;0.98;0.43;;;;;;;;;;5057705;28;20013;-71
2021/12/24 09:59:05;;;;;;;3.53;0.55;;;;;;;;;;5057849;28;20069;-70
2021/12/24 10:01:34;;;;;;;1.52;0.63;;;;;;;;;;5057641;28;20021;-71
2021/12/24 10:04:07;;;;;;;2.42;0.55;;;;;;;;;;5057832;28;20072;-71
2021/12/24 10:06:34;;;;;;;2.80;0.60;;;;;;;;;;5057894;28;20020;-71
2021/12/24 10:09:08;;;;;;;2.00;0.60;;;;;;;;;;5040472;28;20022;-71
2021/12/24 10:11:52;;;;;;;2.38;0.60;;;;;;;;;;5057652;28;20021;-71
2021/12/24 10:14:19;;;;;;;1.40;0.35;;;;;;;;;;5057345;28;20021;-71
2021/12/24 10:16:48;;;;;;;0.98;0.40;;;;;;;;;;5040260;28;20022;-70
2021/12/24 10:19:15;;;;;;;2.28;0.47;;;;;;;;;;5057709;28;20035;-71
2021/12/24 10:21:41;;;;;;;0.77;0.30;;;;;;;;;;5057504;28;20041;-71
2021/12/24 10:24:19;;;;;;;1.80;0.40;;;;;;;;;;5057576;28;20025;-71
2021/12/24 10:26:44;;;;;;;2.60;0.50;;;;;;;;;;5040193;28;20013;-71
2021/12/24 10:29:32;;;;;;;7.82;1.08;;;;;;;;;;5057180;28;20032;-71
2021/12/24 10:32:08;;;;;;;0.63;0.40;;;;;;;;;;5057105;28;20036;-71
2021/12/24 10:34:34;;;;;;;0.70;0.40;;;;;;;;;;5040204;28;20025;-71
2021/12/24 10:37:05;;;;;;;3.83;0.52;;;;;;;;;;5057332;28;20040;-71
2021/12/24 10:39:43;;;;;;;2.80;0.50;;;;;;;;;;5040265;28;20025;-71
2021/12/24 10:42:16;;;;;;;1.88;0.40;;;;;;;;;;5057384;28;20024;-71
2021/12/24 10:44:45;;;;;;;2.67;0.65;;;;;;;;;;5057408;28;20021;-71
2021/12/24 10:47:41;;;;;;;0.40;0.40;;;;;;;;;;5057299;28;20073;-71
2021/12/24 10:53:19;;;;;;;3.15;0.70;;;;;;;;;;5057316;28;20089;-71
2021/12/24 10:56:07;;;;;;;1.58;0.47;;;;;;;;;;5040295;28;20037;-70
2021/12/24 10:58:34;;;;;;;0.93;0.50;;;;;;;;;;5055274;28;20017;-71
2021/12/24 11:01:00;;;;;;;1.05;0.43;;;;;;;;;;5039914;28;20010;-71
2021/12/24 11:03:32;;;;;;;0.35;0.20;;;;;;;;;;5057202;28;20029;-71
2021/12/24 11:06:13;;;;;;;2.08;0.55;;;;;;;;;;5057198;28;20097;-71
2021/12/24 11:08:39;;;;;;;1.50;0.30;;;;;;;;;;5039978;28;20024;-71
2021/12/24 11:11:09;;;;;;;1.23;0.40;;;;;;;;;;5057135;28;20013;-71
2021/12/24 11:13:45;;;;;;;1.75;0.30;;;;;;;;;;5056950;28;20018;-71
2021/12/24 11:16:15;;;;;;;0.77;0.30;;;;;;;;;;5056945;28;20036;-71
2021/12/24 11:18:45;;;;;;;0.77;0.20;;;;;;;;;;5056973;28;20044;-71
2021/12/24 11:21:17;;;;;;;1.67;0.38;;;;;;;;;;5057068;28;20006;-71
2021/12/24 11:23:43;;;;;;;0.52;0.30;;;;;;;;;;5057035;28;20021;-71
2021/12/24 11:26:12;;;;;;;1.80;0.30;;;;;;;;;;5057336;28;20017;-71
2021/12/24 11:28:38;;;;;;;0.85;0.40;;;;;;;;;;5060744;28;20019;-71
2021/12/24 11:31:10;;;;;;;4.07;0.57;;;;;;;;;;5060382;28;20049;-71
2021/12/24 11:33:37;;;;;;;2.65;0.30;;;;;;;;;;5060707;28;20033;-71
2021/12/24 11:36:06;;;;;;;2.83;0.30;;;;;;;;;;5060594;28;20017;-71
2021/12/24 11:38:42;;;;;;;1.02;0.35;;;;;;;;;;5043316;28;20017;-71
2021/12/24 11:41:11;;;;;;;1.15;0.57;;;;;;;;;;5043035;28;20009;-71
2021/12/24 11:43:39;;;;;;;4.55;0.43;;;;;;;;;;5043265;28;20021;-71
2021/12/24 11:46:07;;;;;;;1.10;0.32;;;;;;;;;;5060347;28;20013;-71
2021/12/24 11:48:33;;;;;;;3.03;0.32;;;;;;;;;;5060310;28;20080;-71
2021/12/24 11:51:01;;;;;;;0.90;0.50;;;;;;;;;;5060362;28;20040;-71
2021/12/24 11:53:30;;;;;;;0.40;0.40;;;;;;;;;;5060349;28;20017;-71
2021/12/24 11:56:03;;;;;;;1.13;0.35;;;;;;;;;;5060142;28;20033;-71
2021/12/24 11:58:28;;;;;;;1.15;0.47;;;;;;;;;;5042753;28;20009;-71
2021/12/24 12:00:55;;;;;;;0.40;0.40;;;;;;;;;;5060191;28;20033;-71
2021/12/24 12:03:33;;;;;;;0.93;0.55;;;;;;;;;;5060157;28;20055;-71
2021/12/24 12:05:59;;;;;;;1.83;0.32;;;;;;;;;;5060246;28;20032;-71
2021/12/24 12:08:25;;;;;;;1.90;0.60;;;;;;;;;;5059958;28;20021;-71
2021/12/24 12:10:59;;;;;;;0.57;0.50;;;;;;;;;;5059951;28;20025;-71
2021/12/24 12:13:43;;;;;;;1.40;0.70;;;;;;;;;;5042589;28;20032;-71
2021/12/24 12:16:27;;;;;;;2.30;0.60;;;;;;;;;;5042517;28;20015;-71
2021/12/24 12:19:11;;;;;;;1.77;0.35;;;;;;;;;;5059716;28;20052;-71
2021/12/24 12:21:50;;;;;;;0.98;0.55;;;;;;;;;;5059691;28;20029;-71
2021/12/24 12:26:53;;;;;;;3.72;0.65;;;;;;;;;;5059449;28;20009;-71
2021/12/24 12:29:27;;;;;;;0.75;0.47;;;;;;;;;;5059380;28;20048;-71
2021/12/24 12:32:14;;;;;;;0.85;0.43;;;;;;;;;;5038493;28;20038;-71
2021/12/24 12:34:39;;;;;;;3.08;0.60;;;;;;;;;;5039190;28;20014;-71
2021/12/24 12:37:30;;;;;;;2.42;0.63;;;;;;;;;;5039219;28;20029;-71
2021/12/24 12:40:06;;;;;;;2.28;0.63;;;;;;;;;;5032120;28;20029;-71
2021/12/24 12:42:50;;;;;;;1.17;0.40;;;;;;;;;;5022250;28;20057;-72
2021/12/24 12:45:22;;;;;;;0.30;0.30;;;;;;;;;;5021923;28;20191;-71
2021/12/24 12:47:59;;;;;;;1.45;0.60;;;;;;;;;;5022174;28;20029;-71
2021/12/24 12:50:27;;;;;;;2.05;0.30;;;;;;;;;;5039215;28;20018;-71
2021/12/24 12:53:29;;;;;;;0.85;0.40;;;;;;;;;;5039211;28;20028;-72
2021/12/24 12:56:13;;;;;;;1.63;0.35;;;;;;;;;;5035464;28;20044;-71
2021/12/24 12:58:41;;;;;;;2.15;0.47;;;;;;;;;;5021702;28;20010;-71
2021/12/24 13:01:13;;;;;;;0.75;0.40;;;;;;;;;;5038678;28;20010;-71
2021/12/24 13:03:57;;;;;;;3.75;0.65;;;;;;;;;;5038938;28;20014;-71
2021/12/24 13:06:23;;;;;;;0.73;0.50;;;;;;;;;;5039053;28;20021;-71
2021/12/24 13:08:49;;;;;;;1.77;0.70;;;;;;;;;;5038274;28;20032;-71
2021/12/24 13:11:20;;;;;;;0.40;0.40;;;;;;;;;;5038757;28;20048;-71
2021/12/24 13:13:56;;;;;;;1.25;0.60;;;;;;;;;;5038192;28;20032;-71
2021/12/24 13:16:45;;;;;;;2.78;0.50;;;;;;;;;;5038685;28;20013;-72
2021/12/24 13:24:55;;;;;;;1.40;0.40;;;;;;;;;;5038793;28;20013;-71
2021/12/24 13:27:29;;;;;;;1.02;0.35;;;;;;;;;;5038324;28;20040;-72
2021/12/24 13:30:17;;;;;;;1.40;0.45;;;;;;;;;;5038350;28;20074;-72
2021/12/24 13:32:52;;;;;;;0.50;0.30;;;;;;;;;;5037612;28;20106;-72
2021/12/24 13:35:21;;;;;;;0.35;0.35;;;;;;;;;;5038246;28;20037;-72
2021/12/24 13:37:48;;;;;;;2.72;0.73;;;;;;;;;;5038479;28;20041;-72
2021/12/24 13:40:20;;;;;;;0.68;0.28;;;;;;;;;;5038381;28;20034;-72
2021/12/24 13:42:58;;;;;;;0.63;0.30;;;;;;;;;;5038159;28;20058;-73
2021/12/24 13:45:27;;;;;;;2.05;0.50;;;;;;;;;;5038102;28;20009;-72
2021/12/24 13:48:15;;;;;;;0.70;0.40;;;;;;;;;;5038116;28;20166;-72
2021/12/24 13:56:17;;;;;;;3.25;0.50;;;;;;;;;;5038077;28;20025;-72
2021/12/24 13:58:55;;;;;;;0.95;0.60;;;;;;;;;;5037597;28;20041;-71
2021/12/24 14:01:29;;;;;;;0.40;0.40;;;;;;;;;;5036918;28;20018;-72
2021/12/24 14:03:57;;;;;;;2.47;0.50;;;;;;;;;;5037357;28;20029;-72
2021/12/24 14:06:41;;;;;;;1.98;0.60;;;;;;;;;;5038222;28;20014;-72
2021/12/24 14:09:11;;;;;;;0.85;0.40;;;;;;;;;;5037826;28;20098;-72
2021/12/24 14:11:37;;;;;;;0.75;0.52;;;;;;;;;;5037422;28;20021;-72
2021/12/24 14:14:09;;;;;;;2.80;0.50;;;;;;;;;;5037581;28;20021;-72
2021/12/24 14:19:31;;;;;;;0.85;0.45;;;;;;;;;;5037668;28;20024;-72
2021/12/24 14:22:16;;;;;;;0.98;0.38;;;;;;;;;;5037516;28;20077;-72
2021/12/24 14:25:02;;;;;;;0.82;0.30;;;;;;;;;;5037650;28;20025;-72
2021/12/24 14:27:30;;;;;;;0.95;0.40;;;;;;;;;;5037627;28;20010;-72
2021/12/24 14:29:59;;;;;;;0.80;0.47;;;;;;;;;;5037352;28;20029;-72
2021/12/24 14:32:31;;;;;;;0.82;0.40;;;;;;;;;;5053597;28;20084;-71
2021/12/24 14:34:59;;;;;;;2.05;0.50;;;;;;;;;;5057635;28;20041;-72
2021/12/24 14:37:35;;;;;;;1.75;0.60;;;;;;;;;;5057546;28;20082;-72
2021/12/24 14:40:12;;;;;;;0.93;0.45;;;;;;;;;;5057510;28;20014;-72
2021/12/24 14:42:45;;;;;;;1.40;0.32;;;;;;;;;;5040072;28;20048;-72
2021/12/24 14:45:33;;;;;;;0.98;0.30;;;;;;;;;;5040133;28;20013;-72
2021/12/24 14:48:07;;;;;;;0.85;0.40;;;;;;;;;;5057101;28;20013;-72
2021/12/24 14:50:46;;;;;;;2.42;0.35;;;;;;;;;;5057267;28;20013;-72
2021/12/24 14:53:33;;;;;;;2.65;0.60;;;;;;;;;;5057244;28;20021;-72
2021/12/24 14:56:05;;;;;;;0.88;0.43;;;;;;;;;;5057343;28;20051;-72
2021/12/24 14:58:32;;;;;;;0.80;0.40;;;;;;;;;;5057295;28;20018;-72
2021/12/24 15:01:01;;;;;;;3.47;1.55;;;;;;;;;;5057257;28;20030;-72
2021/12/24 15:03:32;;;;;;;0.40;0.32;;;;;;;;;;5061112;28;20033;-72
2021/12/24 15:05:58;;;;;;;1.20;0.30;;;;;;;;;;5061153;28;20028;-72
2021/12/24 15:08:33;;;;;;;0.40;0.40;;;;;;;;;;5043989;28;20044;-72
2021/12/24 15:11:10;;;;;;;1.35;0.40;;;;;;;;;;5060953;28;20056;-72
2021/12/24 15:13:42;;;;;;;1.42;0.50;;;;;;;;;;5061042;28;20022;-72
2021/12/24 15:16:08;;;;;;;1.70;0.50;;;;;;;;;;5060793;28;20010;-71
2021/12/24 15:18:34;;;;;;;0.88;0.50;;;;;;;;;;5060930;28;20085;-72
2021/12/24 15:21:00;;;;;;;1.05;0.50;;;;;;;;;;5060764;28;20032;-72
2021/12/24 15:23:25;;;;;;;1.08;0.50;;;;;;;;;;5060739;28;20045;-72
2021/12/24 15:25:51;;;;;;;3.08;0.52;;;;;;;;;;5060632;28;20065;-72
2021/12/24 15:28:20;;;;;;;0.50;0.40;;;;;;;;;;5061275;28;20021;-72
2021/12/24 15:30:47;;;;;;;0.85;0.52;;;;;;;;;;5060349;28;20017;-72
2021/12/24 15:33:13;;;;;;;1.98;0.52;;;;;;;;;;5060711;28;20027;-72
2021/12/24 15:35:39;;;;;;;0.65;0.40;;;;;;;;;;5060546;28;20018;-72
2021/12/24 15:38:05;;;;;;;9.25;1.13;;;;;;;;;;5060673;28;20025;-72
2021/12/24 15:40:32;;;;;;;2.83;0.73;;;;;;;;;;5043223;28;20132;-72
2021/12/24 15:43:01;;;;;;;1.90;0.55;;;;;;;;;;5043065;28;20021;-72
2021/12/24 15:45:27;;;;;;;1.70;0.55;;;;;;;;;;5042938;28;20018;-72
2021/12/24 15:47:53;;;;;;;1.55;0.52;;;;;;;;;;5060232;28;20021;-72
2021/12/24 15:50:18;;;;;;;1.65;0.45;;;;;;;;;;5060292;28;20069;-72
2021/12/24 15:52:44;;;;;;;2.10;0.50;;;;;;;;;;5060185;28;20090;-72
2021/12/24 15:55:09;;;;;;;1.85;0.50;;;;;;;;;;5060208;28;20020;-72
2021/12/24 15:57:35;;;;;;;3.45;0.68;;;;;;;;;;5042947;28;20033;-72
2021/12/24 16:00:00;;;;;;;1.83;0.90;;;;;;;;;;5042748;28;20116;-72
2021/12/24 16:02:25;;;;;;;2.28;0.50;;;;;;;;;;5042737;28;20022;-72
2021/12/24 16:04:51;;;;;;;3.67;0.80;;;;;;;;;;5059900;28;20014;-73
2021/12/24 16:07:16;;;;;;;1.70;0.60;;;;;;;;;;5059884;28;20013;-71
2021/12/24 16:09:42;;;;;;;1.45;0.50;;;;;;;;;;5059894;28;20017;-72
2021/12/24 16:12:10;;;;;;;3.53;0.80;;;;;;;;;;5059244;28;20013;-73
2021/12/24 16:14:35;;;;;;;0.50;0.45;;;;;;;;;;5059680;28;20036;-72
2021/12/24 16:17:01;;;;;;;1.00;0.50;;;;;;;;;;5059875;28;20009;-72
2021/12/24 16:19:26;;;;;;;2.15;0.50;;;;;;;;;;5059663;28;20069;-72
2021/12/24 16:21:52;;;;;;;3.03;0.70;;;;;;;;;;5042289;28;20021;-72
2021/12/24 16:24:18;;;;;;;3.35;0.63;;;;;;;;;;5059621;28;20025;-72
2021/12/24 16:26:44;;;;;;;2.35;0.65;;;;;;;;;;5059542;28;20036;-73
2021/12/24 16:29:12;;;;;;;1.55;0.50;;;;;;;;;;5059499;28;20029;-72
2021/12/24 16:31:38;;;;;;;1.05;0.50;;;;;;;;;;5042129;28;20072;-72
2021/12/24 16:34:04;;;;;;;0.88;0.57;;;;;;;;;;5042350;28;20017;-72
2021/12/24 16:36:30;;;;;;;1.40;0.98;;;;;;;;;;5059279;28;20006;-72
2021/12/24 16:38:56;;;;;;;2.75;0.60;;;;;;;;;;5059224;28;20022;-72
2021/12/24 16:41:21;;;;;;;1.42;0.60;;;;;;;;;;5059136;28;20074;-72
2021/12/24 16:43:47;;;;;;;1.23;0.50;;;;;;;;;;5059324;28;20018;-72
2021/12/24 16:46:12;;;;;;;1.55;0.50;;;;;;;;;;5059445;28;20040;-72
2021/12/24 16:48:38;;;;;;;2.83;0.57;;;;;;;;;;5059153;28;20044;-72
2021/12/24 16:51:06;;;;;;;7.18;0.90;;;;;;;;;;5059155;28;20069;-72
2021/12/24 16:53:31;;;;;;;3.05;1.10;;;;;;;;;;5058985;28;20093;-72